createdAt,value
2022-08-05T00:01:28.014Z,57.17
2022-08-05T00:03:56.952Z,57.33
2022-08-05T00:06:30.706Z,57.42
2022-08-05T00:09:03.138Z,57.54
2022-08-05T00:11:35.007Z,57.77
2022-08-05T00:14:13.056Z,58.12
2022-08-05T00:16:53.060Z,58.30
2022-08-05T00:19:23.466Z,58.31
2022-08-05T00:21:52.471Z,58.65
2022-08-05T00:24:24.523Z,58.78
2022-08-05T00:26:53.275Z,58.99
2022-08-05T00:29:25.569Z,59.06
2022-08-05T00:32:10.957Z,59.49
2022-08-05T00:34:56.490Z,59.62
2022-08-05T00:37:50.763Z,60.00
2022-08-05T00:40:17.614Z,60.08
2022-08-05T00:42:53.311Z,60.25
2022-08-05T00:45:38.104Z,60.27
2022-08-05T00:48:08.290Z,60.51
2022-08-05T00:50:36.494Z,60.54
2022-08-05T00:53:03.459Z,60.69
2022-08-05T00:55:42.908Z,61.17
2022-08-05T00:58:17.031Z,61.18
2022-08-05T01:00:47.541Z,61.14
2022-08-05T01:03:22.680Z,61.45
2022-08-05T01:05:51.416Z,61.53
2022-08-05T01:08:30.676Z,61.64
2022-08-05T01:11:33.656Z,61.61
2022-08-05T01:14:11.903Z,62.07
2022-08-05T01:16:45.668Z,61.89
2022-08-05T01:19:20.117Z,62.08
2022-08-05T01:22:10.838Z,62.34
2022-08-05T01:24:56.764Z,62.30
2022-08-05T01:27:50.670Z,62.73
2022-08-05T01:30:33.706Z,62.82
2022-08-05T01:33:06.266Z,62.93
2022-08-05T01:35:51.680Z,63.07
2022-08-05T01:38:27.218Z,63.30
2022-08-05T01:40:58.867Z,63.31
2022-08-05T01:43:28.402Z,63.42
2022-08-05T01:45:57.018Z,63.61
2022-08-05T01:48:26.925Z,63.83
2022-08-05T01:50:55.618Z,63.92
2022-08-05T01:53:56.988Z,64.02
2022-08-05T01:56:13.759Z,64.17
2022-08-05T01:59:04.893Z,64.41
2022-08-05T02:01:39.934Z,64.64
2022-08-05T02:04:10.364Z,64.65
2022-08-05T02:06:39.219Z,64.78
2022-08-05T02:09:07.447Z,64.93
2022-08-05T02:11:52.574Z,65.14
2022-08-05T02:15:03.242Z,65.20
2022-08-05T02:18:28.228Z,65.13
2022-08-05T02:20:25.453Z,65.32
2022-08-05T02:23:03.406Z,65.42
2022-08-05T02:25:50.039Z,65.42
2022-08-05T02:28:29.104Z,65.55
2022-08-05T02:31:02.340Z,65.80
2022-08-05T02:33:38.559Z,65.74
2022-08-05T02:36:09.293Z,65.82
2022-08-05T02:38:37.922Z,66.02
2022-08-05T02:41:17.054Z,65.98
2022-08-05T02:44:06.504Z,66.06
2022-08-05T02:46:34.459Z,66.03
2022-08-05T02:49:02.031Z,66.14
2022-08-05T02:52:03.710Z,66.14
2022-08-05T02:54:36.090Z,66.31
2022-08-05T02:57:10.410Z,66.19
2022-08-05T02:59:54.539Z,66.46
2022-08-05T03:02:27.669Z,66.53
2022-08-05T03:04:57.581Z,66.29
2022-08-05T03:08:00.136Z,66.67
2022-08-05T03:10:15.979Z,66.67
2022-08-05T03:12:51.874Z,66.83
2022-08-05T03:15:20.469Z,66.96
2022-08-05T03:17:47.165Z,66.91
2022-08-05T03:20:14.008Z,67.03
2022-08-05T03:22:44.198Z,67.28
2022-08-05T03:26:03.429Z,67.18
2022-08-05T03:28:08.494Z,67.28
2022-08-05T03:30:38.340Z,67.37
2022-08-05T03:33:08.723Z,67.52
2022-08-05T03:35:41.305Z,67.28
2022-08-05T03:38:12.312Z,67.41
2022-08-05T03:40:45.152Z,67.57
2022-08-05T03:43:59.235Z,67.59
2022-08-05T03:46:02.556Z,67.67
2022-08-05T03:48:30.428Z,67.59
2022-08-05T03:52:37.323Z,67.90
2022-08-05T03:56:01.078Z,67.89
2022-08-05T03:57:16.695Z,67.94
2022-08-05T03:59:54.754Z,68.00
2022-08-05T04:02:37.537Z,68.18
2022-08-05T04:06:08.773Z,68.44
2022-08-05T04:09:36.702Z,68.43
2022-08-05T04:12:03.875Z,68.58
2022-08-05T04:14:50.870Z,68.80
2022-08-05T04:17:18.027Z,68.61
2022-08-05T04:19:54.214Z,68.97
2022-08-05T04:22:21.613Z,69.01
2022-08-05T04:24:52.520Z,68.96
2022-08-05T04:27:33.282Z,69.22
2022-08-05T04:30:08.392Z,69.26
2022-08-05T04:32:35.898Z,69.32
2022-08-05T04:35:03.727Z,69.64
2022-08-05T04:38:01.983Z,69.73
2022-08-05T04:40:19.911Z,69.51
2022-08-05T04:42:46.811Z,69.86
2022-08-05T04:45:14.126Z,69.92
2022-08-05T04:47:50.205Z,69.91
2022-08-05T04:50:37.233Z,70.11
2022-08-05T04:53:06.846Z,70.11
2022-08-05T04:56:11.968Z,70.20
2022-08-05T04:58:24.453Z,70.33
2022-08-05T05:00:52.799Z,70.50
2022-08-05T05:03:20.329Z,70.58
2022-08-05T05:06:39.103Z,70.66
2022-08-05T05:08:36.805Z,70.60
2022-08-05T05:11:10.774Z,70.61
2022-08-05T05:13:43.516Z,70.63
2022-08-05T05:16:10.698Z,70.70
2022-08-05T05:18:38.756Z,70.72
2022-08-05T05:21:05.716Z,70.79
2022-08-05T05:23:39.014Z,70.85
2022-08-05T05:26:20.169Z,70.97
2022-08-05T05:28:55.773Z,70.97
2022-08-05T05:31:23.945Z,71.07
2022-08-05T05:33:59.285Z,71.42
2022-08-05T05:36:28.301Z,71.25
2022-08-05T05:38:57.228Z,71.32
2022-08-05T05:41:24.368Z,71.20
2022-08-05T05:43:58.555Z,71.40
2022-08-05T05:46:27.414Z,71.58
2022-08-05T05:48:54.494Z,71.80
2022-08-05T05:51:22.838Z,71.76
2022-08-05T05:53:57.818Z,71.88
2022-08-05T05:56:32.655Z,71.87
2022-08-05T05:59:03.361Z,71.75
2022-08-05T06:01:37.945Z,72.13
2022-08-05T06:04:11.862Z,72.04
2022-08-05T06:06:46.644Z,71.92
2022-08-05T06:09:17.291Z,72.03
2022-08-05T06:11:59.337Z,72.14
2022-08-05T06:14:28.860Z,72.18
2022-08-05T06:16:57.051Z,72.10
2022-08-05T06:19:26.129Z,72.05
2022-08-05T06:22:03.084Z,72.24
2022-08-05T06:24:30.238Z,71.99
2022-08-05T06:26:57.907Z,72.10
2022-08-05T06:30:25.167Z,72.24
2022-08-05T06:34:07.983Z,72.22
2022-08-05T06:37:56.059Z,72.09
2022-08-05T06:41:22.077Z,72.24
2022-08-05T06:44:49.189Z,72.28
2022-08-05T06:48:54.534Z,72.33
2022-08-05T06:52:02.411Z,72.34
2022-08-05T06:59:11.963Z,71.97
2022-08-05T07:02:38.520Z,71.87
2022-08-05T07:06:14.444Z,71.75
2022-08-05T07:09:45.038Z,71.67
2022-08-05T07:17:57.135Z,71.01
2022-08-05T07:20:33.076Z,70.75
2022-08-05T07:23:00.926Z,70.35
2022-08-05T07:25:54.785Z,70.10
2022-08-05T07:28:17.379Z,69.98
2022-08-05T07:30:44.643Z,69.91
2022-08-05T07:33:17.481Z,69.69
2022-08-05T07:36:03.389Z,69.72
2022-08-05T07:38:42.885Z,69.10
2022-08-05T07:41:35.216Z,69.09
2022-08-05T07:44:02.962Z,69.33
2022-08-05T07:46:31.805Z,68.96
2022-08-05T07:49:05.954Z,68.63
2022-08-05T07:51:40.785Z,68.72
2022-08-05T07:54:18.802Z,68.39
2022-08-05T07:57:13.831Z,68.42
2022-08-05T07:59:40.296Z,67.97
2022-08-05T08:02:16.014Z,67.74
2022-08-05T08:05:49.352Z,67.52
2022-08-05T08:13:07.842Z,67.07
2022-08-05T08:16:50.714Z,67.28
2022-08-05T08:23:03.137Z,66.68
2022-08-05T08:26:30.148Z,66.53
2022-08-05T08:30:05.570Z,66.14
2022-08-05T08:32:43.598Z,65.99
2022-08-05T08:35:13.689Z,65.70
2022-08-05T08:37:40.675Z,65.80
2022-08-05T08:40:13.095Z,65.35
2022-08-05T08:42:51.052Z,65.13
2022-08-05T08:45:26.696Z,65.01
2022-08-05T08:48:12.561Z,64.73
2022-08-05T08:51:03.470Z,64.32
2022-08-05T08:53:37.340Z,63.81
2022-08-05T08:56:06.331Z,63.44
2022-08-05T08:58:43.019Z,62.75
2022-08-05T09:02:11.385Z,62.42
2022-08-05T09:05:17.311Z,62.07
2022-08-05T09:07:57.471Z,61.87
2022-08-05T09:10:27.035Z,61.33
2022-08-05T09:12:55.940Z,60.82
2022-08-05T09:15:22.947Z,60.45
2022-08-05T09:17:52.901Z,60.20
2022-08-05T09:20:36.299Z,59.47
2022-08-05T09:28:04.212Z,57.56
2022-08-05T09:32:41.920Z,56.63
2022-08-05T09:39:23.388Z,55.31
2022-08-05T09:42:54.336Z,55.11
2022-08-05T09:50:18.133Z,54.65
2022-08-05T09:54:00.781Z,53.69
2022-08-05T09:57:27.337Z,53.20
2022-08-05T10:00:54.151Z,52.12
2022-08-05T10:08:34.498Z,51.97
2022-08-05T10:11:53.894Z,51.82
2022-08-05T10:19:08.459Z,51.05
2022-08-05T10:22:38.026Z,50.87
2022-08-05T10:26:14.533Z,50.55
2022-08-05T10:30:06.839Z,50.30
2022-08-05T10:37:21.807Z,50.33
2022-08-05T10:40:03.946Z,50.45
2022-08-05T10:42:45.241Z,50.65
2022-08-05T10:45:23.897Z,50.92
2022-08-05T10:48:36.050Z,51.14
2022-08-05T10:51:59.635Z,51.62
2022-08-05T10:56:05.286Z,53.02
2022-08-05T11:00:02.728Z,54.42
2022-08-05T11:03:23.785Z,54.73
2022-08-05T11:11:00.976Z,54.99
2022-08-05T11:15:01.128Z,54.44
2022-08-05T11:18:32.639Z,54.32
2022-08-05T11:21:06.229Z,53.85
2022-08-05T11:24:03.875Z,53.04
2022-08-05T11:26:43.130Z,52.20
2022-08-05T11:29:38.024Z,51.78
2022-08-05T11:32:24.613Z,50.31
2022-08-05T11:34:54.434Z,49.32
2022-08-05T11:38:37.005Z,47.91
2022-08-05T11:41:13.956Z,46.58
2022-08-05T11:44:04.382Z,45.83
2022-08-05T11:47:09.537Z,45.38
2022-08-05T11:49:27.996Z,45.07
2022-08-05T11:51:55.347Z,44.51
2022-08-05T11:54:34.611Z,43.79
2022-08-05T11:57:08.142Z,43.36
2022-08-05T11:59:51.113Z,42.58
2022-08-05T12:02:29.715Z,42.06
2022-08-05T12:04:59.849Z,41.37
2022-08-05T12:08:08.384Z,41.28
2022-08-05T12:10:24.803Z,40.68
2022-08-05T12:13:15.823Z,40.45
2022-08-05T12:15:49.775Z,40.73
2022-08-05T12:18:24.188Z,40.69
2022-08-05T12:20:51.405Z,40.06
2022-08-05T12:23:18.082Z,39.57
2022-08-05T12:25:53.855Z,39.14
2022-08-05T12:28:37.837Z,39.29
2022-08-05T12:31:05.383Z,39.11
2022-08-05T12:33:36.287Z,39.01
2022-08-05T12:36:08.047Z,38.98
2022-08-05T12:38:40.146Z,38.97
2022-08-05T12:41:13.170Z,38.74
2022-08-05T12:43:57.751Z,39.06
2022-08-05T12:46:29.307Z,39.01
2022-08-05T12:49:14.949Z,39.50
2022-08-05T12:52:12.321Z,39.66
2022-08-05T12:54:36.680Z,39.46
2022-08-05T12:57:09.548Z,39.44
2022-08-05T13:01:56.979Z,39.47
2022-08-05T13:02:37.328Z,39.58
2022-08-05T13:05:07.668Z,39.30
2022-08-05T13:07:59.415Z,39.57
2022-08-05T13:10:22.145Z,39.54
2022-08-05T13:12:50.971Z,39.20
2022-08-05T13:15:36.133Z,39.17
2022-08-05T13:18:19.947Z,38.89
2022-08-05T13:20:49.228Z,38.44
2022-08-05T13:23:18.113Z,38.41
2022-08-05T13:25:52.816Z,37.61
2022-08-05T13:28:27.124Z,36.69
2022-08-05T13:30:54.046Z,35.68
2022-08-05T13:34:21.275Z,35.06
2022-08-05T13:36:10.589Z,33.85
2022-08-05T13:40:14.362Z,32.99
2022-08-05T13:42:00.490Z,31.41
2022-08-05T13:44:27.178Z,30.58
2022-08-05T13:47:04.699Z,29.50
2022-08-05T13:49:36.144Z,28.39
2022-08-05T13:52:14.118Z,27.53
2022-08-05T13:54:41.657Z,26.55
2022-08-05T13:57:09.738Z,25.78
2022-08-05T13:59:38.495Z,25.43
2022-08-05T14:02:26.645Z,24.69
2022-08-05T14:05:11.527Z,23.38
2022-08-05T14:08:00.058Z,22.56
2022-08-05T14:10:31.017Z,22.19
2022-08-05T14:12:58.877Z,20.98
2022-08-05T14:16:05.475Z,20.83
2022-08-05T14:18:18.468Z,20.79
2022-08-05T14:20:52.895Z,21.18
2022-08-05T14:24:21.854Z,21.46
2022-08-05T14:32:03.703Z,23.20
2022-08-05T14:35:20.557Z,24.02
2022-08-05T14:42:41.809Z,26.19
2022-08-05T14:46:09.025Z,26.30
2022-08-05T14:49:59.677Z,26.38
2022-08-05T14:53:22.069Z,26.51
2022-08-05T15:00:32.538Z,25.08
2022-08-05T15:03:59.060Z,23.83
2022-08-05T15:11:19.302Z,20.99
2022-08-05T15:14:49.686Z,19.96
2022-08-05T15:22:00.288Z,20.80
2022-08-05T15:25:51.117Z,20.30
2022-08-05T15:33:06.890Z,18.67
2022-08-05T15:36:34.248Z,17.96
2022-08-05T15:41:00.646Z,17.12
2022-08-05T15:43:47.519Z,17.36
2022-08-05T15:51:07.163Z,18.28
2022-08-05T15:54:34.903Z,19.62
2022-08-05T15:58:04.117Z,20.93
2022-08-05T16:01:30.616Z,21.99
2022-08-05T16:08:59.233Z,21.25
2022-08-05T16:12:25.951Z,19.92
2022-08-05T18:14:44.407Z,26.40
2022-08-05T18:18:01.167Z,27.05
2022-08-05T18:20:00.263Z,27.25
2022-08-05T18:22:36.257Z,28.33
2022-08-05T18:25:13.241Z,28.07
2022-08-05T18:27:52.068Z,28.40
2022-08-05T18:30:19.901Z,28.58
2022-08-05T18:32:53.550Z,28.86
2022-08-05T18:35:28.394Z,29.20
2022-08-05T18:38:16.571Z,29.88
2022-08-05T18:41:57.046Z,30.11
2022-08-05T18:43:38.033Z,30.47
2022-08-05T18:46:09.937Z,30.85
2022-08-05T18:48:41.687Z,30.98
2022-08-05T18:52:04.016Z,31.38
2022-08-05T18:54:15.238Z,31.78
2022-08-05T18:56:51.197Z,31.88
2022-08-05T18:59:43.496Z,32.05
2022-08-05T19:02:11.291Z,32.56
2022-08-05T19:05:01.710Z,32.67
2022-08-05T19:07:45.239Z,33.21
2022-08-05T19:10:14.147Z,33.46
2022-08-05T19:12:41.210Z,33.40
2022-08-05T19:15:25.019Z,33.60
2022-08-05T19:18:08.336Z,34.23
2022-08-05T19:20:37.159Z,34.52
2022-08-05T19:24:04.461Z,34.65
2022-08-05T19:26:01.716Z,34.97
2022-08-05T19:28:31.086Z,35.35
2022-08-05T19:31:00.869Z,35.26
2022-08-05T19:33:35.535Z,35.34
2022-08-05T19:36:06.061Z,35.69
2022-08-05T19:38:35.714Z,36.00
2022-08-05T19:41:07.422Z,36.28
2022-08-05T19:44:05.653Z,36.33
2022-08-05T19:46:29.171Z,36.63
2022-08-05T19:49:04.624Z,36.63
2022-08-05T19:52:05.555Z,36.89
2022-08-05T19:54:26.827Z,36.89
2022-08-05T19:56:59.399Z,37.04
2022-08-05T20:00:00.846Z,36.90
2022-08-05T20:02:14.793Z,37.26
2022-08-05T20:04:46.172Z,37.30
2022-08-05T20:07:13.968Z,37.25
2022-08-05T20:09:54.859Z,37.55
2022-08-05T20:12:24.408Z,37.64
2022-08-05T20:14:53.180Z,38.03
2022-08-05T20:17:23.298Z,37.95
2022-08-05T20:19:56.943Z,38.23
2022-08-05T20:22:27.048Z,38.53
2022-08-05T20:24:55.775Z,38.94
2022-08-05T20:27:26.435Z,39.33
2022-08-05T20:29:57.705Z,39.55
2022-08-05T20:32:27.069Z,39.93
2022-08-05T20:34:54.246Z,39.97
2022-08-05T20:38:05.355Z,39.98
2022-08-05T20:40:08.873Z,40.73
2022-08-05T20:42:35.833Z,40.86
2022-08-05T20:45:03.496Z,40.64
2022-08-05T20:47:31.803Z,41.03
2022-08-05T20:49:59.424Z,41.45
2022-08-05T20:52:26.566Z,41.65
2022-08-05T20:55:15.834Z,41.83
2022-08-05T20:57:43.116Z,41.65
2022-08-05T21:00:40.324Z,42.09
2022-08-05T21:03:06.079Z,42.13
2022-08-05T21:05:48.378Z,42.33
2022-08-05T21:08:26.472Z,42.47
2022-08-05T21:10:54.874Z,42.57
2022-08-05T21:13:55.717Z,42.55
2022-08-05T21:16:12.836Z,43.08
2022-08-05T21:18:44.969Z,42.81
2022-08-05T21:21:12.246Z,43.52
2022-08-05T21:23:39.133Z,43.31
2022-08-05T21:26:12.195Z,43.75
2022-08-05T21:28:50.618Z,43.87
2022-08-05T21:31:18.260Z,43.88
2022-08-05T21:33:47.786Z,44.04
2022-08-05T21:36:27.461Z,44.56
2022-08-05T21:38:55.353Z,44.44
2022-08-05T21:41:22.282Z,44.70
2022-08-05T21:44:01.792Z,44.89
2022-08-05T21:46:34.875Z,45.30
2022-08-05T21:49:11.824Z,45.40
2022-08-05T21:52:22.301Z,45.87
2022-08-05T21:54:42.564Z,45.96
2022-08-05T21:57:30.907Z,46.05
2022-08-05T22:00:05.546Z,46.06
2022-08-05T22:02:34.185Z,46.42
2022-08-05T22:05:00.874Z,46.43
2022-08-05T22:07:54.437Z,46.93
2022-08-05T22:10:16.196Z,46.92
2022-08-05T22:12:44.766Z,47.20
2022-08-05T22:16:02.602Z,47.20
2022-08-05T22:18:06.299Z,47.56
2022-08-05T22:20:35.711Z,47.72
2022-08-05T22:23:24.942Z,48.04
2022-08-05T22:26:30.251Z,47.95
2022-08-05T22:28:57.103Z,48.18
2022-08-05T22:31:30.299Z,48.54
2022-08-05T22:34:01.572Z,48.44
2022-08-05T22:36:29.194Z,48.62
2022-08-05T22:38:56.307Z,48.91
2022-08-05T22:42:04.335Z,49.05
2022-08-05T22:44:12.097Z,49.20
2022-08-05T22:46:40.867Z,49.53
2022-08-05T22:49:46.139Z,49.61
2022-08-05T22:52:04.910Z,49.92
2022-08-05T22:54:35.730Z,49.74
2022-08-05T22:57:03.739Z,49.78
2022-08-05T22:59:46.370Z,50.02
2022-08-05T23:02:18.712Z,50.15
2022-08-05T23:04:57.155Z,50.54
2022-08-05T23:07:23.993Z,50.48
2022-08-05T23:10:01.160Z,50.74
2022-08-05T23:12:32.546Z,50.73
2022-08-05T23:15:03.473Z,50.70
2022-08-05T23:17:37.121Z,51.19
2022-08-05T23:20:17.755Z,50.95
2022-08-05T23:22:48.580Z,51.13
2022-08-05T23:25:52.962Z,51.39
2022-08-05T23:28:07.079Z,51.41
2022-08-05T23:30:40.314Z,51.91
2022-08-05T23:33:16.279Z,52.02
2022-08-05T23:35:50.820Z,52.09
2022-08-05T23:38:18.189Z,52.38
2022-08-05T23:40:49.380Z,52.25
2022-08-05T23:43:25.634Z,52.63
2022-08-05T23:46:20.357Z,52.47
2022-08-05T23:49:00.942Z,52.91
2022-08-05T23:51:52.920Z,52.91
2022-08-05T23:54:36.506Z,53.19
2022-08-05T23:57:06.612Z,53.33
2022-08-05T23:59:37.620Z,53.42
